createdAt,value
2023-03-17T00:00:26.604Z,79.90
2023-03-17T00:05:38.963Z,79.57
2023-03-17T00:10:42.779Z,79.31
2023-03-17T00:15:51.174Z,79.83
2023-03-17T00:20:54.749Z,79.44
2023-03-17T00:25:58.428Z,79.31
2023-03-17T00:31:03.653Z,79.91
2023-03-17T00:36:07.965Z,79.89
2023-03-17T00:41:12.855Z,80.31
2023-03-17T00:46:28.920Z,80.35
2023-03-17T00:51:34.009Z,79.85
2023-03-17T00:56:39.474Z,79.82
2023-03-17T01:01:43.039Z,79.67
2023-03-17T01:06:46.542Z,79.66
2023-03-17T01:11:49.981Z,79.68
2023-03-17T01:16:53.672Z,79.83
2023-03-17T01:21:56.827Z,79.87
2023-03-17T01:27:00.262Z,80.06
2023-03-17T01:32:03.448Z,80.27
2023-03-17T01:37:07.307Z,79.87
2023-03-17T01:42:10.920Z,80.50
2023-03-17T01:47:16.991Z,80.28
2023-03-17T01:52:23.366Z,80.46
2023-03-17T01:57:56.808Z,79.97
2023-03-17T02:03:00.199Z,80.60
2023-03-17T02:08:09.368Z,81.19
2023-03-17T02:13:14.194Z,81.03
2023-03-17T02:18:19.570Z,81.47
2023-03-17T02:23:24.020Z,82.14
2023-03-17T02:28:31.981Z,82.09
2023-03-17T02:33:35.575Z,82.54
2023-03-17T02:38:38.619Z,82.57
2023-03-17T02:43:43.198Z,83.92
2023-03-17T02:48:47.092Z,84.45
2023-03-17T02:53:50.512Z,85.09
2023-03-17T02:58:54.884Z,85.15
2023-03-17T03:03:59.701Z,85.10
2023-03-17T03:09:04.169Z,85.50
2023-03-17T03:14:08.496Z,85.70
2023-03-17T03:19:12.883Z,86.56
2023-03-17T03:24:16.309Z,86.09
2023-03-17T03:29:19.982Z,86.82
2023-03-17T03:34:23.415Z,86.55
2023-03-17T03:39:27.186Z,86.07
2023-03-17T03:44:30.294Z,86.88
2023-03-17T03:49:33.942Z,87.79
2023-03-17T03:54:37.115Z,88.31
2023-03-17T03:59:40.844Z,89.23
2023-03-17T04:04:44.527Z,89.26
2023-03-17T04:09:53.620Z,89.29
2023-03-17T04:14:57.646Z,89.29
2023-03-17T04:20:00.951Z,89.70
2023-03-17T04:25:04.334Z,89.30
2023-03-17T04:30:08.836Z,89.55
2023-03-17T04:35:15.874Z,90.29
2023-03-17T04:40:19.928Z,90.76
2023-03-17T04:45:23.074Z,91.26
2023-03-17T04:50:26.831Z,91.74
2023-03-17T04:55:29.952Z,91.44
2023-03-17T05:00:39.007Z,91.35
2023-03-17T05:05:42.654Z,91.36
2023-03-17T05:10:46.383Z,91.43
2023-03-17T05:15:51.931Z,91.89
2023-03-17T05:20:55.175Z,91.76
2023-03-17T05:25:58.682Z,91.53
2023-03-17T05:31:01.958Z,91.41
2023-03-17T05:36:05.981Z,91.33
2023-03-17T05:41:10.898Z,90.49
2023-03-17T05:46:14.085Z,90.04
2023-03-17T05:51:18.203Z,89.79
2023-03-17T05:56:22.241Z,89.06
2023-03-17T06:01:25.606Z,89.45
2023-03-17T06:06:29.243Z,87.96
2023-03-17T06:11:33.105Z,85.74
2023-03-17T06:16:36.253Z,81.49
2023-03-17T06:21:39.883Z,77.91
2023-03-17T06:26:44.003Z,69.22
2023-03-17T06:31:51.140Z,49.93
2023-03-17T06:36:54.826Z,43.79
2023-03-17T06:41:59.064Z,39.50
2023-03-17T06:47:02.472Z,38.48
2023-03-17T06:52:05.787Z,36.82
2023-03-17T06:57:09.981Z,36.95
2023-03-17T07:02:13.725Z,33.76
2023-03-17T07:07:17.103Z,35.68
2023-03-17T07:12:21.180Z,35.05
2023-03-17T07:17:24.333Z,32.56
2023-03-17T07:22:28.012Z,32.77
2023-03-17T07:27:32.506Z,32.53
2023-03-17T07:32:36.583Z,35.17
2023-03-17T07:37:39.838Z,31.47
2023-03-17T07:42:43.035Z,30.87
2023-03-17T07:47:47.074Z,30.66
2023-03-17T07:52:51.100Z,31.99
2023-03-17T07:57:54.501Z,32.25
2023-03-17T08:03:09.482Z,32.71
2023-03-17T08:08:14.310Z,31.76
2023-03-17T08:13:18.045Z,33.82
2023-03-17T08:18:21.411Z,32.20
2023-03-17T08:23:31.175Z,31.21
2023-03-17T08:28:38.830Z,31.39
2023-03-17T08:33:46.972Z,32.24
2023-03-17T08:38:51.620Z,30.69
2023-03-17T08:43:56.665Z,30.62
2023-03-17T08:49:01.329Z,34.13
2023-03-17T08:54:07.205Z,33.13
2023-03-17T08:59:10.940Z,35.57
2023-03-17T09:04:15.726Z,33.30
2023-03-17T09:09:22.145Z,34.68
2023-03-17T09:14:26.060Z,33.13
2023-03-17T09:19:29.553Z,34.06
2023-03-17T09:24:33.293Z,33.64
2023-03-17T09:29:36.519Z,32.38
2023-03-17T09:34:39.765Z,33.09
2023-03-17T09:39:43.045Z,33.89
2023-03-17T09:45:26.855Z,35.10
2023-03-17T09:50:45.771Z,35.15
2023-03-17T09:55:55.334Z,35.53
2023-03-17T10:01:00.192Z,34.43
2023-03-17T10:06:34.031Z,35.08
2023-03-17T10:11:46.323Z,34.36
2023-03-17T10:17:02.153Z,35.14
2023-03-17T10:22:16.450Z,33.49
2023-03-17T10:27:19.972Z,35.94
2023-03-17T10:32:23.100Z,36.16
2023-03-17T10:37:29.971Z,37.41
2023-03-17T10:42:33.385Z,35.62
2023-03-17T10:47:48.393Z,34.85
2023-03-17T10:53:05.179Z,36.32
2023-03-17T10:58:16.904Z,36.20
2023-03-17T11:03:36.249Z,38.82
2023-03-17T11:08:42.305Z,38.22
2023-03-17T11:13:45.439Z,41.45
2023-03-17T11:18:51.837Z,38.31
2023-03-17T11:24:04.874Z,36.44
2023-03-17T11:29:20.026Z,38.42
2023-03-17T11:34:47.279Z,37.61
2023-03-17T11:40:10.586Z,41.31
2023-03-17T11:45:35.984Z,38.28
2023-03-17T11:50:50.987Z,39.48
2023-03-17T11:56:14.101Z,38.62
2023-03-17T12:01:24.604Z,38.13
2023-03-17T12:06:39.218Z,37.92
2023-03-17T12:11:45.714Z,37.50
2023-03-17T12:17:36.952Z,36.65
2023-03-17T12:22:51.141Z,37.82
2023-03-17T12:28:04.713Z,38.29
2023-03-17T12:33:20.446Z,37.30
2023-03-17T12:38:43.909Z,39.20
2023-03-17T12:44:00.132Z,37.98
2023-03-17T12:49:38.006Z,38.99
2023-03-17T12:54:46.785Z,38.63
2023-03-17T12:59:58.671Z,38.25
2023-03-17T13:05:08.202Z,37.17
2023-03-17T13:10:20.780Z,38.25
2023-03-17T13:15:24.469Z,35.64
2023-03-17T13:20:38.471Z,38.60
2023-03-17T13:25:42.063Z,37.41
2023-03-17T13:30:57.622Z,35.95
2023-03-17T13:36:31.806Z,37.28
2023-03-17T13:41:38.952Z,36.92
2023-03-17T13:46:49.514Z,35.43
2023-03-17T13:51:59.878Z,37.37
2023-03-17T13:57:28.779Z,37.92
2023-03-17T14:02:36.744Z,37.55
2023-03-17T14:07:59.147Z,36.83
2023-03-17T14:13:25.953Z,37.65
2023-03-17T14:18:50.831Z,38.06
2023-03-17T14:23:56.274Z,35.01
2023-03-17T14:29:05.188Z,37.19
2023-03-17T14:34:15.011Z,37.80
2023-03-17T14:39:24.392Z,35.43
2023-03-17T14:44:29.059Z,34.45
2023-03-17T14:49:33.778Z,35.53
2023-03-17T14:54:45.787Z,37.87
2023-03-17T15:00:04.669Z,38.27
2023-03-17T15:05:29.862Z,39.57
2023-03-17T15:10:42.789Z,38.48
2023-03-17T15:15:46.155Z,39.78
2023-03-17T15:20:50.320Z,38.22
2023-03-17T15:25:58.119Z,38.52
2023-03-17T15:31:13.361Z,40.45
2023-03-17T15:36:33.156Z,39.59
2023-03-17T15:41:37.185Z,41.44
2023-03-17T15:46:40.285Z,41.67
2023-03-17T15:51:44.025Z,42.85
2023-03-17T15:56:47.416Z,43.57
2023-03-17T16:01:50.992Z,44.54
2023-03-17T16:06:55.187Z,45.28
2023-03-17T16:11:58.615Z,45.63
2023-03-17T16:17:02.441Z,49.19
2023-03-17T16:22:06.311Z,51.89
2023-03-17T16:27:19.725Z,55.38
2023-03-17T16:32:22.845Z,59.27
2023-03-17T16:37:27.205Z,59.31
2023-03-17T16:42:32.545Z,63.29
2023-03-17T16:47:36.220Z,66.06
2023-03-17T16:52:39.430Z,66.40
2023-03-17T16:57:45.853Z,69.16
2023-03-17T17:02:50.036Z,70.39
2023-03-17T17:07:56.225Z,72.26
2023-03-17T17:13:00.020Z,72.84
2023-03-17T17:18:13.837Z,73.50
2023-03-17T17:23:23.415Z,74.29
2023-03-17T17:28:27.441Z,73.50
2023-03-17T17:33:30.635Z,73.45
2023-03-17T17:38:34.407Z,74.25
2023-03-17T17:43:37.996Z,74.90
2023-03-17T17:48:41.399Z,75.10
2023-03-17T17:53:45.446Z,75.01
2023-03-17T17:58:50.233Z,75.78
2023-03-17T18:03:53.410Z,75.72
2023-03-17T18:08:56.848Z,75.05
2023-03-17T18:14:00.197Z,75.52
2023-03-17T18:19:06.465Z,76.58
2023-03-17T18:24:10.223Z,77.05
2023-03-17T18:29:13.712Z,76.53
2023-03-17T18:34:24.574Z,77.37
2023-03-17T18:39:28.823Z,77.21
2023-03-17T18:44:33.340Z,77.31
2023-03-17T18:49:36.456Z,77.39
2023-03-17T18:54:39.613Z,76.52
2023-03-17T18:59:43.303Z,76.65
2023-03-17T19:04:48.148Z,76.27
2023-03-17T19:09:51.360Z,77.03
2023-03-17T19:14:55.167Z,76.70
2023-03-17T19:19:58.707Z,77.49
2023-03-17T19:25:04.692Z,77.72
2023-03-17T19:30:09.118Z,78.34
2023-03-17T19:35:12.914Z,78.58
2023-03-17T19:40:16.447Z,80.18
2023-03-17T19:45:19.994Z,80.48
2023-03-17T19:50:24.070Z,80.96
2023-03-17T19:55:30.707Z,81.94
2023-03-17T20:00:34.458Z,82.90
2023-03-17T20:05:37.664Z,83.02
2023-03-17T20:10:41.607Z,83.54
2023-03-17T20:15:45.385Z,84.09
2023-03-17T20:20:54.174Z,84.59
2023-03-17T20:25:58.169Z,84.68
2023-03-17T20:31:03.311Z,84.96
2023-03-17T20:36:06.863Z,85.19
2023-03-17T20:41:14.081Z,85.83
2023-03-17T20:46:19.893Z,85.96
2023-03-17T20:51:24.098Z,86.31
2023-03-17T20:56:30.103Z,86.92
2023-03-17T21:01:36.625Z,87.07
2023-03-17T21:06:41.723Z,87.72
2023-03-17T21:11:46.008Z,87.34
2023-03-17T21:16:49.671Z,87.17
2023-03-17T21:21:52.834Z,86.74
2023-03-17T21:26:56.198Z,87.04
2023-03-17T21:32:02.047Z,85.87
2023-03-17T21:37:06.540Z,85.61
2023-03-17T21:42:10.207Z,85.20
2023-03-17T21:47:13.427Z,84.61
2023-03-17T21:52:16.640Z,84.50
2023-03-17T21:57:19.757Z,83.94
2023-03-17T22:02:24.095Z,83.22
2023-03-17T22:07:28.375Z,82.92
2023-03-17T22:12:32.642Z,82.39
2023-03-17T22:17:37.102Z,82.07
2023-03-17T22:22:40.992Z,80.61
2023-03-17T22:27:44.438Z,81.88
2023-03-17T22:32:49.227Z,80.62
2023-03-17T22:37:52.749Z,82.01
2023-03-17T22:42:57.853Z,81.67
2023-03-17T22:48:01.659Z,82.56
2023-03-17T22:53:05.270Z,82.01
2023-03-17T22:58:08.893Z,82.56
2023-03-17T23:03:12.561Z,82.54
2023-03-17T23:08:18.222Z,82.42
2023-03-17T23:13:22.722Z,81.97
2023-03-17T23:18:26.395Z,81.40
2023-03-17T23:23:29.688Z,81.61
2023-03-17T23:28:33.473Z,80.94
2023-03-17T23:33:36.910Z,81.42
2023-03-17T23:38:42.895Z,80.20
2023-03-17T23:43:47.082Z,81.05
2023-03-17T23:48:50.607Z,81.58
2023-03-17T23:53:54.734Z,80.06
2023-03-17T23:58:58.015Z,80.47
